sensor_id;sensor_type;location;lat;lon;timestamp;pressure;altitude;pressure_sealevel;temperature;humidity
68941;BME280;55982;51.476;7.552;2023-08-07T00:01:28;99301.78;;;13.69;100.00
68941;BME280;55982;51.476;7.552;2023-08-07T00:03:54;99293.47;;;13.61;100.00
68941;BME280;55982;51.476;7.552;2023-08-07T00:06:19;99287.19;;;13.63;100.00
68941;BME280;55982;51.476;7.552;2023-08-07T00:08:44;99288.47;;;13.72;100.00
68941;BME280;55982;51.476;7.552;2023-08-07T00:11:10;99289.50;;;13.69;100.00
68941;BME280;55982;51.476;7.552;2023-08-07T00:13:36;99291.78;;;13.60;100.00
68941;BME280;55982;51.476;7.552;2023-08-07T00:16:02;99287.34;;;13.60;100.00
68941;BME280;55982;51.476;7.552;2023-08-07T00:18:29;99283.13;;;13.58;100.00
68941;BME280;55982;51.476;7.552;2023-08-07T00:20:54;99284.66;;;13.62;100.00
68941;BME280;55982;51.476;7.552;2023-08-07T00:23:19;99289.56;;;13.68;100.00
68941;BME280;55982;51.476;7.552;2023-08-07T00:25:45;99280.16;;;13.64;100.00
68941;BME280;55982;51.476;7.552;2023-08-07T00:28:10;99284.66;;;13.62;100.00
68941;BME280;55982;51.476;7.552;2023-08-07T00:30:35;99284.31;;;13.68;100.00
68941;BME280;55982;51.476;7.552;2023-08-07T00:33:01;99274.56;;;13.70;100.00
68941;BME280;55982;51.476;7.552;2023-08-07T00:35:26;99279.81;;;13.70;100.00
68941;BME280;55982;51.476;7.552;2023-08-07T00:37:51;99279.91;;;13.68;100.00
68941;BME280;55982;51.476;7.552;2023-08-07T00:40:17;99279.72;;;13.56;100.00
68941;BME280;55982;51.476;7.552;2023-08-07T00:42:42;99283.97;;;13.74;100.00
68941;BME280;55982;51.476;7.552;2023-08-07T00:45:08;99291.78;;;13.75;100.00
68941;BME280;55982;51.476;7.552;2023-08-07T00:47:34;99277.94;;;13.72;100.00
68941;BME280;55982;51.476;7.552;2023-08-07T00:50:01;99281.34;;;13.74;100.00
68941;BME280;55982;51.476;7.552;2023-08-07T00:52:28;99289.22;;;13.74;100.00
68941;BME280;55982;51.476;7.552;2023-08-07T00:54:53;99288.38;;;13.73;100.00
68941;BME280;55982;51.476;7.552;2023-08-07T00:57:19;99287.91;;;13.83;100.00
68941;BME280;55982;51.476;7.552;2023-08-07T00:59:48;99280.91;;;13.66;100.00
68941;BME280;55982;51.476;7.552;2023-08-07T01:02:14;99290.94;;;13.75;100.00
68941;BME280;55982;51.476;7.552;2023-08-07T01:04:40;99294.66;;;13.71;100.00
68941;BME280;55982;51.476;7.552;2023-08-07T01:07:06;99297.22;;;13.72;100.00
68941;BME280;55982;51.476;7.552;2023-08-07T01:09:31;99305.09;;;13.72;100.00
68941;BME280;55982;51.476;7.552;2023-08-07T01:14:58;99298.06;;;13.73;100.00
68941;BME280;55982;51.476;7.552;2023-08-07T01:17:26;99305.00;;;13.74;100.00
68941;BME280;55982;51.476;7.552;2023-08-07T01:19:53;99302.22;;;13.77;100.00
68941;BME280;55982;51.476;7.552;2023-08-07T01:22:19;99311.47;;;13.84;100.00
68941;BME280;55982;51.476;7.552;2023-08-07T01:24:47;99309.78;;;13.83;100.00
68941;BME280;55982;51.476;7.552;2023-08-07T01:27:37;99307.81;;;13.71;100.00
68941;BME280;55982;51.476;7.552;2023-08-07T01:30:12;99314.44;;;13.78;100.00
68941;BME280;55982;51.476;7.552;2023-08-07T01:35:35;99317.75;;;13.82;100.00
68941;BME280;55982;51.476;7.552;2023-08-07T01:38:04;99318.78;;;13.79;100.00
68941;BME280;55982;51.476;7.552;2023-08-07T01:40:30;99330.13;;;13.79;100.00
68941;BME280;55982;51.476;7.552;2023-08-07T01:42:56;99323.50;;;13.72;100.00
68941;BME280;55982;51.476;7.552;2023-08-07T01:45:26;99323.69;;;13.69;100.00
68941;BME280;55982;51.476;7.552;2023-08-07T01:47:52;99323.72;;;13.68;100.00
68941;BME280;55982;51.476;7.552;2023-08-07T01:50:18;99326.03;;;13.74;100.00
68941;BME280;55982;51.476;7.552;2023-08-07T01:52:44;99323.81;;;13.66;100.00
68941;BME280;55982;51.476;7.552;2023-08-07T01:55:10;99324.19;;;13.76;100.00
68941;BME280;55982;51.476;7.552;2023-08-07T01:57:35;99325.72;;;13.80;100.00
68941;BME280;55982;51.476;7.552;2023-08-07T02:00:00;99322.31;;;13.78;100.00
68941;BME280;55982;51.476;7.552;2023-08-07T02:02:26;99322.31;;;13.78;100.00
68941;BME280;55982;51.476;7.552;2023-08-07T02:04:51;99333.16;;;13.72;100.00
68941;BME280;55982;51.476;7.552;2023-08-07T02:07:17;99323.16;;;13.63;100.00
68941;BME280;55982;51.476;7.552;2023-08-07T02:09:42;99326.72;;;13.62;100.00
68941;BME280;55982;51.476;7.552;2023-08-07T02:12:07;99341.44;;;13.64;100.00
68941;BME280;55982;51.476;7.552;2023-08-07T02:14:33;99339.22;;;13.57;100.00
68941;BME280;55982;51.476;7.552;2023-08-07T02:16:58;99339.72;;;13.48;100.00
68941;BME280;55982;51.476;7.552;2023-08-07T02:19:24;99344.50;;;13.57;100.00
68941;BME280;55982;51.476;7.552;2023-08-07T02:21:49;99344.66;;;13.54;100.00
68941;BME280;55982;51.476;7.552;2023-08-07T02:24:14;99347.88;;;13.59;100.00
68941;BME280;55982;51.476;7.552;2023-08-07T02:26:40;99338.78;;;13.49;100.00
68941;BME280;55982;51.476;7.552;2023-08-07T02:29:05;99348.38;;;13.50;100.00
68941;BME280;55982;51.476;7.552;2023-08-07T02:31:32;99342.28;;;13.49;100.00
68941;BME280;55982;51.476;7.552;2023-08-07T02:33:57;99350.84;;;13.53;100.00
68941;BME280;55982;51.476;7.552;2023-08-07T02:36:23;99348.22;;;13.53;100.00
68941;BME280;55982;51.476;7.552;2023-08-07T02:38:48;99347.69;;;13.46;100.00
68941;BME280;55982;51.476;7.552;2023-08-07T02:41:13;99351.25;;;13.45;100.00
68941;BME280;55982;51.476;7.552;2023-08-07T02:43:39;99344.44;;;13.41;100.00
68941;BME280;55982;51.476;7.552;2023-08-07T02:46:04;99339.97;;;13.43;100.00
68941;BME280;55982;51.476;7.552;2023-08-07T02:48:29;99342.59;;;13.43;100.00
68941;BME280;55982;51.476;7.552;2023-08-07T02:50:55;99348.84;;;13.41;100.00
68941;BME280;55982;51.476;7.552;2023-08-07T02:53:20;99333.25;;;13.38;100.00
68941;BME280;55982;51.476;7.552;2023-08-07T02:55:45;99340.03;;;13.42;100.00
68941;BME280;55982;51.476;7.552;2023-08-07T02:58:11;99341.44;;;13.32;100.00
68941;BME280;55982;51.476;7.552;2023-08-07T03:00:36;99336.97;;;13.34;100.00
68941;BME280;55982;51.476;7.552;2023-08-07T03:03:02;99336.72;;;13.38;100.00
68941;BME280;55982;51.476;7.552;2023-08-07T03:05:27;99336.03;;;13.35;100.00
68941;BME280;55982;51.476;7.552;2023-08-07T03:07:52;99342.97;;;13.36;100.00
68941;BME280;55982;51.476;7.552;2023-08-07T03:10:18;99343.59;;;13.41;100.00
68941;BME280;55982;51.476;7.552;2023-08-07T03:12:43;99345.22;;;13.43;100.00
68941;BME280;55982;51.476;7.552;2023-08-07T03:15:09;99353.78;;;13.47;100.00
68941;BME280;55982;51.476;7.552;2023-08-07T03:17:34;99355.97;;;13.39;100.00
68941;BME280;55982;51.476;7.552;2023-08-07T03:20:00;99346.28;;;13.39;100.00
68941;BME280;55982;51.476;7.552;2023-08-07T03:22:26;99349.00;;;13.38;100.00
68941;BME280;55982;51.476;7.552;2023-08-07T03:24:51;99346.97;;;13.43;100.00
68941;BME280;55982;51.476;7.552;2023-08-07T03:27:16;99343.28;;;13.47;100.00
68941;BME280;55982;51.476;7.552;2023-08-07T03:29:42;99350.00;;;13.35;100.00
68941;BME280;55982;51.476;7.552;2023-08-07T03:32:08;99345.84;;;13.31;100.00
68941;BME280;55982;51.476;7.552;2023-08-07T03:34:34;99354.25;;;13.38;100.00
68941;BME280;55982;51.476;7.552;2023-08-07T03:36:59;99353.63;;;13.50;100.00
68941;BME280;55982;51.476;7.552;2023-08-07T03:39:25;99357.97;;;13.34;100.00
68941;BME280;55982;51.476;7.552;2023-08-07T03:41:50;99367.53;;;13.52;100.00
68941;BME280;55982;51.476;7.552;2023-08-07T03:44:16;99362.13;;;13.55;100.00
68941;BME280;55982;51.476;7.552;2023-08-07T03:46:41;99353.78;;;13.47;100.00
68941;BME280;55982;51.476;7.552;2023-08-07T03:49:07;99367.38;;;13.55;100.00
68941;BME280;55982;51.476;7.552;2023-08-07T03:51:32;99368.53;;;13.49;100.00
68941;BME280;55982;51.476;7.552;2023-08-07T03:54:03;99362.75;;;13.43;100.00
68941;BME280;55982;51.476;7.552;2023-08-07T03:56:28;99372.81;;;13.52;100.00
68941;BME280;55982;51.476;7.552;2023-08-07T03:58:57;99373.25;;;13.43;100.00
68941;BME280;55982;51.476;7.552;2023-08-07T04:01:22;99362.13;;;13.55;100.00
68941;BME280;55982;51.476;7.552;2023-08-07T04:03:48;99367.69;;;13.49;100.00
68941;BME280;55982;51.476;7.552;2023-08-07T04:06:13;99365.84;;;13.51;100.00
68941;BME280;55982;51.476;7.552;2023-08-07T04:08:41;99378.81;;;13.54;100.00
68941;BME280;55982;51.476;7.552;2023-08-07T04:11:07;99369.22;;;13.53;100.00
68941;BME280;55982;51.476;7.552;2023-08-07T04:13:33;99367.69;;;13.49;100.00
68941;BME280;55982;51.476;7.552;2023-08-07T04:15:58;99367.53;;;13.52;100.00
68941;BME280;55982;51.476;7.552;2023-08-07T04:18:25;99376.34;;;13.51;100.00
68941;BME280;55982;51.476;7.552;2023-08-07T04:20:55;99370.09;;;13.53;100.00
68941;BME280;55982;51.476;7.552;2023-08-07T04:23:21;99378.19;;;13.49;100.00
68941;BME280;55982;51.476;7.552;2023-08-07T04:25:47;99376.78;;;13.59;100.00
68941;BME280;55982;51.476;7.552;2023-08-07T04:28:13;99376.66;;;13.45;100.00
68941;BME280;55982;51.476;7.552;2023-08-07T04:30:39;99376.88;;;13.57;100.00
68941;BME280;55982;51.476;7.552;2023-08-07T04:33:04;99383.06;;;13.56;100.00
68941;BME280;55982;51.476;7.552;2023-08-07T04:35:30;99377.97;;;13.53;100.00
68941;BME280;55982;51.476;7.552;2023-08-07T04:37:56;99383.31;;;13.52;100.00
68941;BME280;55982;51.476;7.552;2023-08-07T04:40:21;99391.44;;;13.47;100.00
68941;BME280;55982;51.476;7.552;2023-08-07T04:42:49;99382.53;;;13.50;100.00
68941;BME280;55982;51.476;7.552;2023-08-07T04:45:14;99385.94;;;13.52;100.00
68941;BME280;55982;51.476;7.552;2023-08-07T04:47:40;99386.16;;;13.47;100.00
68941;BME280;55982;51.476;7.552;2023-08-07T04:50:06;99387.34;;;13.42;100.00
68941;BME280;55982;51.476;7.552;2023-08-07T04:52:32;99395.22;;;13.42;100.00
68941;BME280;55982;51.476;7.552;2023-08-07T04:54:57;99390.75;;;13.44;100.00
68941;BME280;55982;51.476;7.552;2023-08-07T04:57:23;99390.50;;;13.48;100.00
68941;BME280;55982;51.476;7.552;2023-08-07T04:59:48;99389.19;;;13.40;100.00
68941;BME280;55982;51.476;7.552;2023-08-07T05:02:13;99401.25;;;13.44;100.00
68941;BME280;55982;51.476;7.552;2023-08-07T05:04:39;99387.34;;;13.42;100.00
68941;BME280;55982;51.476;7.552;2023-08-07T05:07:05;99389.66;;;13.48;100.00
68941;BME280;55982;51.476;7.552;2023-08-07T05:09:30;99391.06;;;13.38;100.00
68941;BME280;55982;51.476;7.552;2023-08-07T05:11:56;99394.75;;;13.51;100.00
68941;BME280;55982;51.476;7.552;2023-08-07T05:14:21;99400.75;;;13.53;100.00
68941;BME280;55982;51.476;7.552;2023-08-07T05:16:47;99396.38;;;13.53;100.00
68941;BME280;55982;51.476;7.552;2023-08-07T05:19:13;99395.38;;;13.56;100.00
68941;BME280;55982;51.476;7.552;2023-08-07T05:21:38;99391.97;;;13.54;100.00
68941;BME280;55982;51.476;7.552;2023-08-07T05:24:04;99396.38;;;13.53;100.00
68941;BME280;55982;51.476;7.552;2023-08-07T05:26:30;99401.78;;;13.50;100.00
68941;BME280;55982;51.476;7.552;2023-08-07T05:28:55;99405.88;;;13.56;100.00
68941;BME280;55982;51.476;7.552;2023-08-07T05:31:23;99401.63;;;13.53;100.00
68941;BME280;55982;51.476;7.552;2023-08-07T05:33:49;99409.91;;;13.46;100.00
68941;BME280;55982;51.476;7.552;2023-08-07T05:36:14;99407.28;;;13.46;100.00
68941;BME280;55982;51.476;7.552;2023-08-07T05:38:42;99403.34;;;13.20;100.00
68941;BME280;55982;51.476;7.552;2023-08-07T05:41:09;99402.47;;;13.20;100.00
68941;BME280;55982;51.476;7.552;2023-08-07T05:43:34;99401.19;;;13.11;100.00
68941;BME280;55982;51.476;7.552;2023-08-07T05:46:00;99410.91;;;13.09;100.00
68941;BME280;55982;51.476;7.552;2023-08-07T05:48:25;99402.94;;;13.11;100.00
68941;BME280;55982;51.476;7.552;2023-08-07T05:50:51;99419.72;;;13.08;100.00
68941;BME280;55982;51.476;7.552;2023-08-07T05:53:17;99415.31;;;13.09;100.00
68941;BME280;55982;51.476;7.552;2023-08-07T05:55:42;99418.56;;;13.14;100.00
68941;BME280;55982;51.476;7.552;2023-08-07T05:58:08;99425.50;;;13.15;100.00
68941;BME280;55982;51.476;7.552;2023-08-07T06:00:33;99420.56;;;13.09;100.00
68941;BME280;55982;51.476;7.552;2023-08-07T06:02:59;99416.38;;;13.05;100.00
68941;BME280;55982;51.476;7.552;2023-08-07T06:05:24;99420.56;;;13.09;100.00
68941;BME280;55982;51.476;7.552;2023-08-07T06:07:49;99424.66;;;13.14;100.00
68941;BME280;55982;51.476;7.552;2023-08-07T06:10:15;99423.34;;;13.23;100.00
68941;BME280;55982;51.476;7.552;2023-08-07T06:12:40;99425.69;;;13.12;100.00
68941;BME280;55982;51.476;7.552;2023-08-07T06:15:06;99427.53;;;13.10;100.00
68941;BME280;55982;51.476;7.552;2023-08-07T06:17:31;99425.22;;;13.21;100.00
68941;BME280;55982;51.476;7.552;2023-08-07T06:19:57;99424.81;;;13.11;100.00
68941;BME280;55982;51.476;7.552;2023-08-07T06:22:22;99435.88;;;13.18;100.00
68941;BME280;55982;51.476;7.552;2023-08-07T06:24:47;99428.75;;;13.20;100.00
68941;BME280;55982;51.476;7.552;2023-08-07T06:27:14;99442.53;;;13.25;100.00
68941;BME280;55982;51.476;7.552;2023-08-07T06:29:40;99435.53;;;13.24;100.00
68941;BME280;55982;51.476;7.552;2023-08-07T06:32:06;99442.34;;;13.28;100.00
68941;BME280;55982;51.476;7.552;2023-08-07T06:34:31;99446.06;;;13.24;100.00
68941;BME280;55982;51.476;7.552;2023-08-07T06:36:56;99451.00;;;13.30;100.00
68941;BME280;55982;51.476;7.552;2023-08-07T06:39:22;99450.78;;;13.17;100.00
68941;BME280;55982;51.476;7.552;2023-08-07T06:41:47;99458.75;;;13.16;100.00
68941;BME280;55982;51.476;7.552;2023-08-07T06:44:13;99457.41;;;13.24;100.00
68941;BME280;55982;51.476;7.552;2023-08-07T06:46:38;99453.31;;;13.19;100.00
68941;BME280;55982;51.476;7.552;2023-08-07T06:49:04;99461.00;;;13.23;100.00
68941;BME280;55982;51.476;7.552;2023-08-07T06:51:29;99459.28;;;13.22;100.00
68941;BME280;55982;51.476;7.552;2023-08-07T06:53:54;99471.53;;;13.22;100.00
68941;BME280;55982;51.476;7.552;2023-08-07T06:56:20;99463.84;;;13.19;100.00
68941;BME280;55982;51.476;7.552;2023-08-07T06:58:45;99460.81;;;13.26;100.00
68941;BME280;55982;51.476;7.552;2023-08-07T07:01:11;99466.78;;;13.30;100.00
68941;BME280;55982;51.476;7.552;2023-08-07T07:03:36;99478.03;;;13.15;100.00
68941;BME280;55982;51.476;7.552;2023-08-07T07:06:02;99477.28;;;13.30;100.00
68941;BME280;55982;51.476;7.552;2023-08-07T07:08:27;99487.34;;;13.39;100.00
68941;BME280;55982;51.476;7.552;2023-08-07T07:10:52;99487.50;;;13.53;100.00
68941;BME280;55982;51.476;7.552;2023-08-07T07:13:18;99487.47;;;13.36;100.00
68941;BME280;55982;51.476;7.552;2023-08-07T07:15:43;99490.41;;;13.47;100.00
68941;BME280;55982;51.476;7.552;2023-08-07T07:18:09;99499.09;;;13.49;100.00
68941;BME280;55982;51.476;7.552;2023-08-07T07:20:34;99504.03;;;13.55;100.00
68941;BME280;55982;51.476;7.552;2023-08-07T07:22:59;99500.03;;;13.65;100.00
68941;BME280;55982;51.476;7.552;2023-08-07T07:25:25;99507.31;;;13.60;100.00
68941;BME280;55982;51.476;7.552;2023-08-07T07:27:50;99513.47;;;13.76;100.00
68941;BME280;55982;51.476;7.552;2023-08-07T07:30:15;99502.63;;;13.82;100.00
68941;BME280;55982;51.476;7.552;2023-08-07T07:32:41;99508.06;;;13.79;100.00
68941;BME280;55982;51.476;7.552;2023-08-07T07:35:07;99520.13;;;14.00;100.00
68941;BME280;55982;51.476;7.552;2023-08-07T07:37:33;99517.63;;;13.97;100.00
68941;BME280;55982;51.476;7.552;2023-08-07T07:39:59;99519.34;;;13.98;100.00
68941;BME280;55982;51.476;7.552;2023-08-07T07:42:24;99523.97;;;13.93;100.00
68941;BME280;55982;51.476;7.552;2023-08-07T07:44:49;99528.91;;;13.99;100.00
68941;BME280;55982;51.476;7.552;2023-08-07T07:47:15;99523.81;;;13.96;100.00
68941;BME280;55982;51.476;7.552;2023-08-07T07:49:45;99523.06;;;13.94;100.00
68941;BME280;55982;51.476;7.552;2023-08-07T07:52:11;99532.81;;;13.92;100.00
68941;BME280;55982;51.476;7.552;2023-08-07T07:54:37;99528.16;;;13.97;100.00
68941;BME280;55982;51.476;7.552;2023-08-07T07:57:02;99531.06;;;14.08;100.00
68941;BME280;55982;51.476;7.552;2023-08-07T07:59:28;99532.91;;;14.06;100.00
68941;BME280;55982;51.476;7.552;2023-08-07T08:01:53;99538.19;;;14.06;100.00
68941;BME280;55982;51.476;7.552;2023-08-07T08:04:18;99548.56;;;14.09;100.00
68941;BME280;55982;51.476;7.552;2023-08-07T08:06:44;99537.66;;;14.00;100.00
68941;BME280;55982;51.476;7.552;2023-08-07T08:09:09;99545.34;;;14.04;100.00
68941;BME280;55982;51.476;7.552;2023-08-07T08:11:35;99548.88;;;14.03;100.00
68941;BME280;55982;51.476;7.552;2023-08-07T08:14:00;99545.31;;;13.70;100.00
68941;BME280;55982;51.476;7.552;2023-08-07T08:16:26;99564.06;;;13.98;100.00
68941;BME280;55982;51.476;7.552;2023-08-07T08:18:51;99563.78;;;14.03;100.00
68941;BME280;55982;51.476;7.552;2023-08-07T08:21:16;99578.09;;;14.14;100.00
68941;BME280;55982;51.476;7.552;2023-08-07T08:23:42;99570.66;;;14.22;100.00
68941;BME280;55982;51.476;7.552;2023-08-07T08:26:07;99571.25;;;14.29;100.00
68941;BME280;55982;51.476;7.552;2023-08-07T08:28:33;99572.22;;;14.26;100.00
68941;BME280;55982;51.476;7.552;2023-08-07T08:30:58;99575.66;;;14.28;100.00
68941;BME280;55982;51.476;7.552;2023-08-07T08:33:24;99578.75;;;14.36;100.00
68941;BME280;55982;51.476;7.552;2023-08-07T08:35:49;99576.56;;;14.44;100.00
68941;BME280;55982;51.476;7.552;2023-08-07T08:38:14;99584.88;;;14.52;100.00
68941;BME280;55982;51.476;7.552;2023-08-07T08:40:42;99577.25;;;14.48;100.00
68941;BME280;55982;51.476;7.552;2023-08-07T08:43:08;99594.53;;;14.36;100.00
68941;BME280;55982;51.476;7.552;2023-08-07T08:45:36;99592.38;;;14.60;100.00
68941;BME280;55982;51.476;7.552;2023-08-07T08:48:07;99597.03;;;14.88;100.00
68941;BME280;55982;51.476;7.552;2023-08-07T08:50:33;99594.66;;;14.99;100.00
68941;BME280;55982;51.476;7.552;2023-08-07T08:52:59;99590.34;;;15.13;100.00
68941;BME280;55982;51.476;7.552;2023-08-07T08:55:28;99599.41;;;15.39;100.00
68941;BME280;55982;51.476;7.552;2023-08-07T08:57:54;99608.59;;;15.16;100.00
68941;BME280;55982;51.476;7.552;2023-08-07T09:00:21;99610.97;;;14.90;100.00
68941;BME280;55982;51.476;7.552;2023-08-07T09:02:50;99609.41;;;14.86;100.00
68941;BME280;55982;51.476;7.552;2023-08-07T09:05:18;99613.78;;;15.33;100.00
68941;BME280;55982;51.476;7.552;2023-08-07T09:07:44;99614.69;;;15.79;100.00
68941;BME280;55982;51.476;7.552;2023-08-07T09:10:12;99616.63;;;15.46;100.00
68941;BME280;55982;51.476;7.552;2023-08-07T09:12:40;99625.13;;;15.51;100.00
68941;BME280;55982;51.476;7.552;2023-08-07T09:15:08;99636.09;;;15.43;100.00
68941;BME280;55982;51.476;7.552;2023-08-07T09:17:39;99634.19;;;15.30;100.00
68941;BME280;55982;51.476;7.552;2023-08-07T09:20:06;99634.81;;;15.19;100.00
68941;BME280;55982;51.476;7.552;2023-08-07T09:22:36;99636.50;;;15.36;100.00
68941;BME280;55982;51.476;7.552;2023-08-07T09:25:01;99632.78;;;15.55;100.00
68941;BME280;55982;51.476;7.552;2023-08-07T09:27:26;99632.25;;;15.80;100.00
68941;BME280;55982;51.476;7.552;2023-08-07T09:29:54;99632.13;;;16.27;100.00
68941;BME280;55982;51.476;7.552;2023-08-07T09:32:22;99627.88;;;16.82;100.00
68941;BME280;55982;51.476;7.552;2023-08-07T09:34:49;99612.75;;;18.06;100.00
68941;BME280;55982;51.476;7.552;2023-08-07T09:37:14;99600.41;;;17.39;100.00
68941;BME280;55982;51.476;7.552;2023-08-07T09:39:40;99610.09;;;17.67;100.00
68941;BME280;55982;51.476;7.552;2023-08-07T09:42:13;99620.88;;;18.43;100.00
68941;BME280;55982;51.476;7.552;2023-08-07T09:44:39;99619.00;;;18.82;100.00
68941;BME280;55982;51.476;7.552;2023-08-07T09:47:14;99611.34;;;18.78;100.00
68941;BME280;55982;51.476;7.552;2023-08-07T09:49:40;99624.72;;;19.25;100.00
68941;BME280;55982;51.476;7.552;2023-08-07T09:52:07;99612.59;;;18.97;100.00
68941;BME280;55982;51.476;7.552;2023-08-07T09:54:36;99619.34;;;19.27;100.00
68941;BME280;55982;51.476;7.552;2023-08-07T09:57:02;99615.34;;;19.81;100.00
68941;BME280;55982;51.476;7.552;2023-08-07T09:59:28;99606.88;;;19.76;100.00
68941;BME280;55982;51.476;7.552;2023-08-07T10:01:55;99608.13;;;19.10;100.00
68941;BME280;55982;51.476;7.552;2023-08-07T10:04:23;99610.38;;;17.89;100.00
68941;BME280;55982;51.476;7.552;2023-08-07T10:06:49;99632.66;;;17.18;100.00
68941;BME280;55982;51.476;7.552;2023-08-07T10:09:14;99640.63;;;17.85;100.00
68941;BME280;55982;51.476;7.552;2023-08-07T10:11:41;99638.88;;;19.13;100.00
68941;BME280;55982;51.476;7.552;2023-08-07T10:14:08;99627.25;;;20.23;100.00
68941;BME280;55982;51.476;7.552;2023-08-07T10:16:33;99620.03;;;20.25;100.00
68941;BME280;55982;51.476;7.552;2023-08-07T10:19:05;99612.22;;;20.11;100.00
68941;BME280;55982;51.476;7.552;2023-08-07T10:21:30;99616.97;;;19.94;100.00
68941;BME280;55982;51.476;7.552;2023-08-07T10:23:56;99620.16;;;19.76;100.00
68941;BME280;55982;51.476;7.552;2023-08-07T10:26:23;99612.94;;;19.29;100.00
68941;BME280;55982;51.476;7.552;2023-08-07T10:28:51;99618.94;;;18.32;100.00
68941;BME280;55982;51.476;7.552;2023-08-07T10:31:20;99635.13;;;17.21;100.00
68941;BME280;55982;51.476;7.552;2023-08-07T10:33:47;99658.25;;;16.61;100.00
68941;BME280;55982;51.476;7.552;2023-08-07T10:36:16;99676.44;;;16.66;100.00
68941;BME280;55982;51.476;7.552;2023-08-07T10:38:42;99676.19;;;16.40;100.00
68941;BME280;55982;51.476;7.552;2023-08-07T10:41:09;99675.13;;;16.59;100.00
68941;BME280;55982;51.476;7.552;2023-08-07T10:43:43;99677.03;;;16.85;100.00
68941;BME280;55982;51.476;7.552;2023-08-07T10:46:11;99688.75;;;17.23;100.00
68941;BME280;55982;51.476;7.552;2023-08-07T10:48:44;99664.59;;;18.75;100.00
68941;BME280;55982;51.476;7.552;2023-08-07T10:51:16;99653.44;;;18.82;100.00
68941;BME280;55982;51.476;7.552;2023-08-07T10:53:44;99659.38;;;19.60;100.00
68941;BME280;55982;51.476;7.552;2023-08-07T10:56:18;99650.31;;;20.68;100.00
68941;BME280;55982;51.476;7.552;2023-08-07T10:58:54;99648.16;;;20.95;100.00
68941;BME280;55982;51.476;7.552;2023-08-07T11:03:56;99653.50;;;21.17;100.00
68941;BME280;55982;51.476;7.552;2023-08-07T11:06:27;99654.22;;;20.86;100.00
68941;BME280;55982;51.476;7.552;2023-08-07T11:08:53;99644.41;;;20.30;100.00
68941;BME280;55982;51.476;7.552;2023-08-07T11:11:19;99641.31;;;20.12;100.00
68941;BME280;55982;51.476;7.552;2023-08-07T11:13:45;99648.22;;;18.81;100.00
68941;BME280;55982;51.476;7.552;2023-08-07T11:16:11;99657.97;;;18.43;100.00
68941;BME280;55982;51.476;7.552;2023-08-07T11:18:37;99660.75;;;18.66;100.00
68941;BME280;55982;51.476;7.552;2023-08-07T11:21:06;99663.28;;;18.68;100.00
68941;BME280;55982;51.476;7.552;2023-08-07T11:23:32;99661.09;;;19.48;100.00
68941;BME280;55982;51.476;7.552;2023-08-07T11:25:57;99676.88;;;20.57;100.00
68941;BME280;55982;51.476;7.552;2023-08-07T11:28:23;99629.34;;;19.83;100.00
68941;BME280;55982;51.476;7.552;2023-08-07T11:30:51;99664.06;;;19.56;100.00
68941;BME280;55982;51.476;7.552;2023-08-07T11:33:21;99643.34;;;20.32;100.00
68941;BME280;55982;51.476;7.552;2023-08-07T11:35:47;99659.44;;;20.42;100.00
68941;BME280;55982;51.476;7.552;2023-08-07T11:38:15;99653.88;;;20.45;100.00
68941;BME280;55982;51.476;7.552;2023-08-07T11:40:53;99650.44;;;21.66;100.00
68941;BME280;55982;51.476;7.552;2023-08-07T11:43:18;99650.06;;;21.81;100.00
68941;BME280;55982;51.476;7.552;2023-08-07T11:45:44;99645.47;;;21.83;100.00
68941;BME280;55982;51.476;7.552;2023-08-07T11:48:10;99637.25;;;21.64;100.00
68941;BME280;55982;51.476;7.552;2023-08-07T11:50:35;99643.03;;;21.80;100.00
68941;BME280;55982;51.476;7.552;2023-08-07T11:53:00;99650.28;;;22.42;100.00
68941;BME280;55982;51.476;7.552;2023-08-07T11:55:28;99650.97;;;22.76;100.00
68941;BME280;55982;51.476;7.552;2023-08-07T11:57:53;99650.38;;;22.51;100.00
68941;BME280;55982;51.476;7.552;2023-08-07T12:00:19;99653.03;;;21.23;100.00
68941;BME280;55982;51.476;7.552;2023-08-07T12:02:45;99664.25;;;19.89;100.00
68941;BME280;55982;51.476;7.552;2023-08-07T12:05:11;99656.66;;;19.49;100.00
68941;BME280;55982;51.476;7.552;2023-08-07T12:07:38;99658.81;;;18.56;100.00
68941;BME280;55982;51.476;7.552;2023-08-07T12:10:06;99669.41;;;19.31;100.00
68941;BME280;55982;51.476;7.552;2023-08-07T12:12:34;99667.19;;;20.21;100.00
68941;BME280;55982;51.476;7.552;2023-08-07T12:14:59;99668.50;;;21.51;100.00
68941;BME280;55982;51.476;7.552;2023-08-07T12:17:25;99666.81;;;22.04;100.00
68941;BME280;55982;51.476;7.552;2023-08-07T12:19:50;99667.13;;;22.74;100.00
68941;BME280;55982;51.476;7.552;2023-08-07T12:22:19;99675.66;;;22.68;100.00
68941;BME280;55982;51.476;7.552;2023-08-07T12:24:45;99663.75;;;22.72;100.00
68941;BME280;55982;51.476;7.552;2023-08-07T12:27:11;99650.84;;;22.25;100.00
68941;BME280;55982;51.476;7.552;2023-08-07T12:29:36;99655.00;;;21.97;100.00
68941;BME280;55982;51.476;7.552;2023-08-07T12:32:02;99675.09;;;23.25;100.00
68941;BME280;55982;51.476;7.552;2023-08-07T12:34:28;99678.28;;;23.89;99.21
68941;BME280;55982;51.476;7.552;2023-08-07T12:36:53;99674.75;;;23.09;100.00
68941;BME280;55982;51.476;7.552;2023-08-07T12:39:19;99677.47;;;23.18;96.90
68941;BME280;55982;51.476;7.552;2023-08-07T12:41:47;99688.16;;;22.36;100.00
68941;BME280;55982;51.476;7.552;2023-08-07T12:44:13;99677.25;;;21.20;100.00
68941;BME280;55982;51.476;7.552;2023-08-07T12:46:39;99679.09;;;20.16;100.00
68941;BME280;55982;51.476;7.552;2023-08-07T12:49:08;99696.69;;;20.64;100.00
68941;BME280;55982;51.476;7.552;2023-08-07T12:51:34;99685.47;;;21.39;100.00
68941;BME280;55982;51.476;7.552;2023-08-07T12:53:59;99691.88;;;21.15;100.00